Погода Мар де Эспанана неделю

Минас-Жерайс, Бразилия

19 - 25 июня
  • 19июня
    Сегодня
    +14°
    +28°
    Ясно и безоблачно
    ВремяПогодаТемператураВлажностьДавлениеВетер, м/сВероятность осадков
    00:00Ясно и безоблачно+17°C76 %712 мм1.8 м/с5 %
    03:00Ясно и безоблачно+15°C83 %712 мм1.6 м/с5 %
    06:00Ясно и безоблачно+14°C91 %712 мм0.9 м/с5 %
    09:00Ясно и безоблачно+20°C71 %715 мм1.3 м/с5 %
    12:00Ясно и безоблачно+27°C54 %714 мм3.6 м/с5 %
    15:00Ясно и безоблачно+27°C51 %713 мм3.1 м/с5 %
    18:00Ясно и безоблачно+21°C65 %712 мм1.9 м/с5 %
    21:00Ясно и безоблачно+20°C69 %713 мм2.1 м/с5 %
  • 20июня
    Четверг
    +14°
    +28°
    Ясно и безоблачно
    ВремяПогодаТемператураВлажностьДавлениеВетер, м/сВероятность осадков
    00:00Ясно и безоблачно+17°C77 %713 мм1.1 м/с5 %
    03:00Ясно и безоблачно+16°C80 %712 мм0.8 м/с5 %
    06:00Ясно и безоблачно+16°C80 %713 мм0.7 м/с5 %
    09:00Ясно и безоблачно+20°C67 %715 мм0.7 м/с5 %
    12:00Ясно и безоблачно+27°C50 %714 мм2.4 м/с5 %
    15:00Ясно и безоблачно+27°C44 %713 мм1.2 м/с5 %
    18:00Ясно и безоблачно+21°C65 %713 мм1.3 м/с5 %
    21:00Ясно и безоблачно+21°C72 %714 мм1.5 м/с5 %
  • 21июня
    Пятница
    +17°
    +28°
    Практически безоблачно
    ВремяПогодаТемператураВлажностьДавлениеВетер, м/сВероятность осадков
    00:00Ясно и безоблачно+16°C78 %713 мм1.3 м/с5 %
    03:00Ясно и безоблачно+16°C84 %713 мм0.9 м/с5 %
    06:00Ясно и безоблачно+14°C92 %713 мм0.4 м/с5 %
    09:00Ясно и безоблачно+19°C75 %714 мм0.5 м/с4 %
    12:00Практически безоблачно+27°C57 %715 мм0.9 м/с5 %
    15:00Практически безоблачно+27°C50 %713 мм1.9 м/с3 %
    18:00Практически безоблачно+21°C68 %713 мм2.1 м/с5 %
    21:00Облачно с прояснениями+20°C83 %714 мм3.3 м/с4 %
  • 22июня
    Суббота
    +15°
    +28°
    Практически безоблачно
    ВремяПогодаТемператураВлажностьДавлениеВетер, м/сВероятность осадков
    00:00Ясно и безоблачно+19°C93 %714 мм3.0 м/с4 %
    03:00Облачно с прояснениями+18°C98 %713 мм2.0 м/с3 %
    06:00Облачно с прояснениями+17°C99 %713 мм1.7 м/с4 %
    09:00Практически безоблачно+20°C81 %715 мм2.4 м/с2 %
    12:00Практически безоблачно+27°C56 %715 мм2.9 м/с6 %
    15:00Практически безоблачно+27°C46 %713 мм3.1 м/с4 %
    18:00Облачно с прояснениями+21°C63 %712 мм2.2 м/с5 %
    21:00Облачно с прояснениями+20°C67 %713 мм2.6 м/с5 %
  • 23июня
    Воскресенье
    +16°
    +28°
    Ясно и безоблачно
    ВремяПогодаТемператураВлажностьДавлениеВетер, м/сВероятность осадков
    00:00Небольшая облачность+17°C79 %712 мм2.2 м/с5 %
    03:00Практически безоблачно+16°C94 %712 мм1.2 м/с5 %
    06:00Ясно и безоблачно+16°C91 %712 мм1.6 м/с5 %
    09:00Ясно и безоблачно+20°C67 %714 мм2.6 м/с5 %
    12:00Ясно и безоблачно+27°C57 %713 мм3.1 м/с5 %
    15:00Ясно и безоблачно+27°C51 %711 мм3.0 м/с5 %
    18:00Ясно и безоблачно+23°C61 %711 мм2.2 м/с5 %
    21:00Ясно и безоблачно+20°C71 %712 мм2.1 м/с5 %
Мы используем cookies
Соглашаюсь